<?xml version="1.0" encoding="UTF-8" standalone="no" ?>
<gpx xmlns="http://www.topografix.com/GPX/1/1" xmlns:xsi="http://www.w3.org/2001/XMLSchema-instance" xsi:schemaLocation="http://www.topografix.com/GPX/1/1 http://www.topografix.com/GPX/1/1/gpx.xsd" version="1.1" creator="VisuGPX - https://www.visugpx.com">
  <metadata>
    <name>5276951-Puy d'enfer dimanche variante</name>
  </metadata>
  <trk>
    <name><![CDATA[5276951-Puy d'enfer dimanche variante]]></name>
    <trkseg>
      <trkpt lat="46.47221" lon="-1.74599">
        <ele>9</ele>
        <time>2020-06-19T06:46:36Z</time>
      </trkpt>
      <trkpt lat="46.47146" lon="-1.74445">
        <ele>8</ele>
        <time>2020-06-19T06:49:29Z</time>
      </trkpt>
      <trkpt lat="46.47088" lon="-1.74329">
        <ele>9</ele>
        <time>2020-06-19T06:51:41Z</time>
      </trkpt>
      <trkpt lat="46.47021" lon="-1.74233">
        <ele>8</ele>
        <time>2020-06-19T06:53:47Z</time>
      </trkpt>
      <trkpt lat="46.47104" lon="-1.74205">
        <ele>13</ele>
        <time>2020-06-19T06:55:40Z</time>
      </trkpt>
      <trkpt lat="46.47172" lon="-1.74198">
        <ele>14</ele>
        <time>2020-06-19T06:57:11Z</time>
      </trkpt>
      <trkpt lat="46.47248" lon="-1.74188">
        <ele>16</ele>
        <time>2020-06-19T06:58:53Z</time>
      </trkpt>
      <trkpt lat="46.47366" lon="-1.74158">
        <ele>18</ele>
        <time>2020-06-19T07:01:33Z</time>
      </trkpt>
      <trkpt lat="46.47345" lon="-1.741">
        <ele>16</ele>
        <time>2020-06-19T07:02:33Z</time>
      </trkpt>
      <trkpt lat="46.47327" lon="-1.74044">
        <ele>15</ele>
        <time>2020-06-19T07:03:30Z</time>
      </trkpt>
      <trkpt lat="46.4732" lon="-1.73986">
        <ele>13</ele>
        <time>2020-06-19T07:04:24Z</time>
      </trkpt>
      <trkpt lat="46.47325" lon="-1.73906">
        <ele>13</ele>
        <time>2020-06-19T07:05:38Z</time>
      </trkpt>
      <trkpt lat="46.47298" lon="-1.73825">
        <ele>14</ele>
        <time>2020-06-19T07:07:01Z</time>
      </trkpt>
      <trkpt lat="46.47374" lon="-1.7367">
        <ele>16</ele>
        <time>2020-06-19T07:09:56Z</time>
      </trkpt>
      <trkpt lat="46.47406" lon="-1.73626">
        <ele>16</ele>
        <time>2020-06-19T07:10:54Z</time>
      </trkpt>
      <trkpt lat="46.47417" lon="-1.73602">
        <ele>16</ele>
        <time>2020-06-19T07:11:21Z</time>
      </trkpt>
      <trkpt lat="46.47449" lon="-1.73535">
        <ele>17</ele>
        <time>2020-06-19T07:12:36Z</time>
      </trkpt>
      <trkpt lat="46.47418" lon="-1.7344">
        <ele>20</ele>
        <time>2020-06-19T07:14:12Z</time>
      </trkpt>
      <trkpt lat="46.47426" lon="-1.73406">
        <ele>20</ele>
        <time>2020-06-19T07:14:45Z</time>
      </trkpt>
      <trkpt lat="46.47359" lon="-1.73359">
        <ele>22</ele>
        <time>2020-06-19T07:16:25Z</time>
      </trkpt>
      <trkpt lat="46.47331" lon="-1.73309">
        <ele>23</ele>
        <time>2020-06-19T07:17:24Z</time>
      </trkpt>
      <trkpt lat="46.47289" lon="-1.73258">
        <ele>22</ele>
        <time>2020-06-19T07:18:37Z</time>
      </trkpt>
      <trkpt lat="46.47283" lon="-1.73185">
        <ele>23</ele>
        <time>2020-06-19T07:19:45Z</time>
      </trkpt>
      <trkpt lat="46.47362" lon="-1.73145">
        <ele>23</ele>
        <time>2020-06-19T07:21:36Z</time>
      </trkpt>
      <trkpt lat="46.47422" lon="-1.73088">
        <ele>24</ele>
        <time>2020-06-19T07:23:12Z</time>
      </trkpt>
      <trkpt lat="46.47415" lon="-1.73063">
        <ele>24</ele>
        <time>2020-06-19T07:23:37Z</time>
      </trkpt>
      <trkpt lat="46.47577" lon="-1.72948">
        <ele>24</ele>
        <time>2020-06-19T07:27:37Z</time>
      </trkpt>
      <trkpt lat="46.47641" lon="-1.73073">
        <ele>22</ele>
        <time>2020-06-19T07:30:01Z</time>
      </trkpt>
      <trkpt lat="46.47689" lon="-1.7303">
        <ele>23</ele>
        <time>2020-06-19T07:31:16Z</time>
      </trkpt>
      <trkpt lat="46.47847" lon="-1.73047">
        <ele>21</ele>
        <time>2020-06-19T07:34:47Z</time>
      </trkpt>
      <trkpt lat="46.4778" lon="-1.72922">
        <ele>23</ele>
        <time>2020-06-19T07:37:13Z</time>
      </trkpt>
      <trkpt lat="46.47788" lon="-1.72859">
        <ele>24</ele>
        <time>2020-06-19T07:38:12Z</time>
      </trkpt>
      <trkpt lat="46.47836" lon="-1.72598">
        <ele>26</ele>
        <time>2020-06-19T07:42:20Z</time>
      </trkpt>
      <trkpt lat="46.47874" lon="-1.7245">
        <ele>27</ele>
        <time>2020-06-19T07:44:45Z</time>
      </trkpt>
      <trkpt lat="46.47898" lon="-1.72357">
        <ele>28</ele>
        <time>2020-06-19T07:46:16Z</time>
      </trkpt>
      <trkpt lat="46.47911" lon="-1.72295">
        <ele>28</ele>
        <time>2020-06-19T07:47:16Z</time>
      </trkpt>
      <trkpt lat="46.47932" lon="-1.72252">
        <ele>29</ele>
        <time>2020-06-19T07:48:04Z</time>
      </trkpt>
      <trkpt lat="46.47911" lon="-1.72207">
        <ele>29</ele>
        <time>2020-06-19T07:48:54Z</time>
      </trkpt>
      <trkpt lat="46.47954" lon="-1.72108">
        <ele>29</ele>
        <time>2020-06-19T07:50:42Z</time>
      </trkpt>
      <trkpt lat="46.47963" lon="-1.72055">
        <ele>29</ele>
        <time>2020-06-19T07:51:32Z</time>
      </trkpt>
      <trkpt lat="46.47981" lon="-1.71997">
        <ele>30</ele>
        <time>2020-06-19T07:52:30Z</time>
      </trkpt>
      <trkpt lat="46.48006" lon="-1.71928">
        <ele>29</ele>
        <time>2020-06-19T07:53:42Z</time>
      </trkpt>
      <trkpt lat="46.48031" lon="-1.71877">
        <ele>29</ele>
        <time>2020-06-19T07:54:40Z</time>
      </trkpt>
      <trkpt lat="46.48018" lon="-1.71728">
        <ele>29</ele>
        <time>2020-06-19T07:56:58Z</time>
      </trkpt>
      <trkpt lat="46.47979" lon="-1.71765">
        <ele>29</ele>
        <time>2020-06-19T07:58:00Z</time>
      </trkpt>
      <trkpt lat="46.47904" lon="-1.71795">
        <ele>29</ele>
        <time>2020-06-19T07:59:44Z</time>
      </trkpt>
      <trkpt lat="46.47893" lon="-1.71701">
        <ele>28</ele>
        <time>2020-06-19T08:01:11Z</time>
      </trkpt>
      <trkpt lat="46.47865" lon="-1.71619">
        <ele>26</ele>
        <time>2020-06-19T08:02:35Z</time>
      </trkpt>
      <trkpt lat="46.4787" lon="-1.71589">
        <ele>25</ele>
        <time>2020-06-19T08:03:04Z</time>
      </trkpt>
      <trkpt lat="46.47898" lon="-1.71551">
        <ele>25</ele>
        <time>2020-06-19T08:03:55Z</time>
      </trkpt>
      <trkpt lat="46.47895" lon="-1.7148">
        <ele>24</ele>
        <time>2020-06-19T08:05:00Z</time>
      </trkpt>
      <trkpt lat="46.47896" lon="-1.71405">
        <ele>24</ele>
        <time>2020-06-19T08:06:09Z</time>
      </trkpt>
      <trkpt lat="46.47887" lon="-1.71349">
        <ele>23</ele>
        <time>2020-06-19T08:07:02Z</time>
      </trkpt>
      <trkpt lat="46.47884" lon="-1.71289">
        <ele>23</ele>
        <time>2020-06-19T08:07:57Z</time>
      </trkpt>
      <trkpt lat="46.47867" lon="-1.71227">
        <ele>23</ele>
        <time>2020-06-19T08:08:59Z</time>
      </trkpt>
      <trkpt lat="46.47839" lon="-1.71194">
        <ele>21</ele>
        <time>2020-06-19T08:09:47Z</time>
      </trkpt>
      <trkpt lat="46.47816" lon="-1.71171">
        <ele>21</ele>
        <time>2020-06-19T08:10:24Z</time>
      </trkpt>
      <trkpt lat="46.47787" lon="-1.71154">
        <ele>21</ele>
        <time>2020-06-19T08:11:06Z</time>
      </trkpt>
      <trkpt lat="46.47772" lon="-1.71128">
        <ele>21</ele>
        <time>2020-06-19T08:11:37Z</time>
      </trkpt>
      <trkpt lat="46.4776" lon="-1.71083">
        <ele>20</ele>
        <time>2020-06-19T08:12:21Z</time>
      </trkpt>
      <trkpt lat="46.47747" lon="-1.71053">
        <ele>19</ele>
        <time>2020-06-19T08:12:54Z</time>
      </trkpt>
      <trkpt lat="46.4772" lon="-1.71066">
        <ele>20</ele>
        <time>2020-06-19T08:13:32Z</time>
      </trkpt>
      <trkpt lat="46.47694" lon="-1.71074">
        <ele>21</ele>
        <time>2020-06-19T08:14:07Z</time>
      </trkpt>
      <trkpt lat="46.47676" lon="-1.71055">
        <ele>21</ele>
        <time>2020-06-19T08:14:37Z</time>
      </trkpt>
      <trkpt lat="46.4765" lon="-1.71053">
        <ele>21</ele>
        <time>2020-06-19T08:15:12Z</time>
      </trkpt>
      <trkpt lat="46.47635" lon="-1.71089">
        <ele>23</ele>
        <time>2020-06-19T08:15:50Z</time>
      </trkpt>
      <trkpt lat="46.47627" lon="-1.71134">
        <ele>24</ele>
        <time>2020-06-19T08:16:33Z</time>
      </trkpt>
      <trkpt lat="46.47614" lon="-1.71199">
        <ele>25</ele>
        <time>2020-06-19T08:17:35Z</time>
      </trkpt>
      <trkpt lat="46.47601" lon="-1.71233">
        <ele>26</ele>
        <time>2020-06-19T08:18:11Z</time>
      </trkpt>
      <trkpt lat="46.47579" lon="-1.71252">
        <ele>27</ele>
        <time>2020-06-19T08:18:45Z</time>
      </trkpt>
      <trkpt lat="46.47561" lon="-1.71254">
        <ele>28</ele>
        <time>2020-06-19T08:19:09Z</time>
      </trkpt>
      <trkpt lat="46.47545" lon="-1.71132">
        <ele>25</ele>
        <time>2020-06-19T08:21:03Z</time>
      </trkpt>
      <trkpt lat="46.47521" lon="-1.71001">
        <ele>23</ele>
        <time>2020-06-19T08:23:08Z</time>
      </trkpt>
      <trkpt lat="46.47497" lon="-1.70909">
        <ele>22</ele>
        <time>2020-06-19T08:24:38Z</time>
      </trkpt>
      <trkpt lat="46.47475" lon="-1.70838">
        <ele>19</ele>
        <time>2020-06-19T08:25:50Z</time>
      </trkpt>
      <trkpt lat="46.47466" lon="-1.7078">
        <ele>18</ele>
        <time>2020-06-19T08:26:45Z</time>
      </trkpt>
      <trkpt lat="46.47454" lon="-1.70731">
        <ele>16</ele>
        <time>2020-06-19T08:27:32Z</time>
      </trkpt>
      <trkpt lat="46.47484" lon="-1.70567">
        <ele>15</ele>
        <time>2020-06-19T08:30:08Z</time>
      </trkpt>
      <trkpt lat="46.47484" lon="-1.70477">
        <ele>17</ele>
        <time>2020-06-19T08:31:31Z</time>
      </trkpt>
      <trkpt lat="46.47321" lon="-1.69932">
        <ele>32</ele>
        <time>2020-06-19T08:40:37Z</time>
      </trkpt>
      <trkpt lat="46.47289" lon="-1.69708">
        <ele>29</ele>
        <time>2020-06-19T08:44:07Z</time>
      </trkpt>
      <trkpt lat="46.47286" lon="-1.6961">
        <ele>29</ele>
        <time>2020-06-19T08:45:37Z</time>
      </trkpt>
      <trkpt lat="46.47289" lon="-1.69451">
        <ele>29</ele>
        <time>2020-06-19T08:48:04Z</time>
      </trkpt>
      <trkpt lat="46.47236" lon="-1.69292">
        <ele>27</ele>
        <time>2020-06-19T08:50:46Z</time>
      </trkpt>
      <trkpt lat="46.471" lon="-1.6891">
        <ele>28</ele>
        <time>2020-06-19T08:57:21Z</time>
      </trkpt>
      <trkpt lat="46.4699" lon="-1.68962">
        <ele>24</ele>
        <time>2020-06-19T08:59:56Z</time>
      </trkpt>
      <trkpt lat="46.46899" lon="-1.69022">
        <ele>24</ele>
        <time>2020-06-19T09:02:09Z</time>
      </trkpt>
      <trkpt lat="46.46757" lon="-1.69">
        <ele>21</ele>
        <time>2020-06-19T09:05:20Z</time>
      </trkpt>
      <trkpt lat="46.46748" lon="-1.68906">
        <ele>23</ele>
        <time>2020-06-19T09:06:47Z</time>
      </trkpt>
      <trkpt lat="46.46597" lon="-1.68528">
        <ele>26</ele>
        <time>2020-06-19T09:13:28Z</time>
      </trkpt>
      <trkpt lat="46.4645" lon="-1.68558">
        <ele>24</ele>
        <time>2020-06-19T09:16:47Z</time>
      </trkpt>
      <trkpt lat="46.46408" lon="-1.68511">
        <ele>25</ele>
        <time>2020-06-19T09:17:57Z</time>
      </trkpt>
      <trkpt lat="46.46473" lon="-1.68133">
        <ele>27</ele>
        <time>2020-06-19T09:23:55Z</time>
      </trkpt>
      <trkpt lat="46.46497" lon="-1.6794">
        <ele>28</ele>
        <time>2020-06-19T09:26:56Z</time>
      </trkpt>
      <trkpt lat="46.46485" lon="-1.67687">
        <ele>31</ele>
        <time>2020-06-19T09:30:49Z</time>
      </trkpt>
      <trkpt lat="46.46263" lon="-1.67708">
        <ele>26</ele>
        <time>2020-06-19T09:35:46Z</time>
      </trkpt>
      <trkpt lat="46.46139" lon="-1.67588">
        <ele>26</ele>
        <time>2020-06-19T09:39:05Z</time>
      </trkpt>
      <trkpt lat="46.46214" lon="-1.67366">
        <ele>25</ele>
        <time>2020-06-19T09:42:52Z</time>
      </trkpt>
      <trkpt lat="46.46293" lon="-1.67056">
        <ele>27</ele>
        <time>2020-06-19T09:47:56Z</time>
      </trkpt>
      <trkpt lat="46.46423" lon="-1.67031">
        <ele>29</ele>
        <time>2020-06-19T09:50:51Z</time>
      </trkpt>
      <trkpt lat="46.46559" lon="-1.67005">
        <ele>31</ele>
        <time>2020-06-19T09:53:54Z</time>
      </trkpt>
      <trkpt lat="46.46594" lon="-1.66734">
        <ele>29</ele>
        <time>2020-06-19T09:58:07Z</time>
      </trkpt>
      <trkpt lat="46.46529" lon="-1.66649">
        <ele>26</ele>
        <time>2020-06-19T10:00:04Z</time>
      </trkpt>
      <trkpt lat="46.46455" lon="-1.66567">
        <ele>23</ele>
        <time>2020-06-19T10:02:08Z</time>
      </trkpt>
      <trkpt lat="46.46432" lon="-1.66498">
        <ele>22</ele>
        <time>2020-06-19T10:03:19Z</time>
      </trkpt>
      <trkpt lat="46.46334" lon="-1.66335">
        <ele>18</ele>
        <time>2020-06-19T10:06:37Z</time>
      </trkpt>
      <trkpt lat="46.46209" lon="-1.66369">
        <ele>20</ele>
        <time>2020-06-19T10:09:27Z</time>
      </trkpt>
      <trkpt lat="46.46195" lon="-1.66142">
        <ele>12</ele>
        <time>2020-06-19T10:12:57Z</time>
      </trkpt>
      <trkpt lat="46.46189" lon="-1.65928">
        <ele>17</ele>
        <time>2020-06-19T10:16:14Z</time>
      </trkpt>
      <trkpt lat="46.46091" lon="-1.66047">
        <ele>14</ele>
        <time>2020-06-19T10:19:04Z</time>
      </trkpt>
      <trkpt lat="46.46006" lon="-1.66031">
        <ele>15</ele>
        <time>2020-06-19T10:20:58Z</time>
      </trkpt>
      <trkpt lat="46.45912" lon="-1.65975">
        <ele>19</ele>
        <time>2020-06-19T10:23:14Z</time>
      </trkpt>
      <trkpt lat="46.45843" lon="-1.65915">
        <ele>23</ele>
        <time>2020-06-19T10:25:01Z</time>
      </trkpt>
      <trkpt lat="46.45699" lon="-1.65734">
        <ele>23</ele>
        <time>2020-06-19T10:29:16Z</time>
      </trkpt>
      <trkpt lat="46.45747" lon="-1.65485">
        <ele>24</ele>
        <time>2020-06-19T10:33:13Z</time>
      </trkpt>
      <trkpt lat="46.45839" lon="-1.65291">
        <ele>26</ele>
        <time>2020-06-19T10:36:50Z</time>
      </trkpt>
      <trkpt lat="46.4585" lon="-1.65192">
        <ele>26</ele>
        <time>2020-06-19T10:38:22Z</time>
      </trkpt>
      <trkpt lat="46.45895" lon="-1.65072">
        <ele>27</ele>
        <time>2020-06-19T10:40:28Z</time>
      </trkpt>
      <trkpt lat="46.45934" lon="-1.64865">
        <ele>27</ele>
        <time>2020-06-19T10:43:45Z</time>
      </trkpt>
      <trkpt lat="46.4601" lon="-1.64636">
        <ele>27</ele>
        <time>2020-06-19T10:47:38Z</time>
      </trkpt>
      <trkpt lat="46.45908" lon="-1.64503">
        <ele>25</ele>
        <time>2020-06-19T10:50:41Z</time>
      </trkpt>
      <trkpt lat="46.45897" lon="-1.64569">
        <ele>26</ele>
        <time>2020-06-19T10:51:44Z</time>
      </trkpt>
      <trkpt lat="46.45822" lon="-1.64582">
        <ele>25</ele>
        <time>2020-06-19T10:53:25Z</time>
      </trkpt>
      <trkpt lat="46.45818" lon="-1.64648">
        <ele>24</ele>
        <time>2020-06-19T10:54:26Z</time>
      </trkpt>
      <trkpt lat="46.4566" lon="-1.64763">
        <ele>21</ele>
        <time>2020-06-19T10:58:21Z</time>
      </trkpt>
      <trkpt lat="46.4556" lon="-1.64824">
        <ele>18</ele>
        <time>2020-06-19T11:00:46Z</time>
      </trkpt>
      <trkpt lat="46.45542" lon="-1.6487">
        <ele>19</ele>
        <time>2020-06-19T11:01:35Z</time>
      </trkpt>
      <trkpt lat="46.45616" lon="-1.65069">
        <ele>22</ele>
        <time>2020-06-19T11:05:03Z</time>
      </trkpt>
      <trkpt lat="46.45472" lon="-1.65138">
        <ele>19</ele>
        <time>2020-06-19T11:08:25Z</time>
      </trkpt>
      <trkpt lat="46.45277" lon="-1.6533">
        <ele>9</ele>
        <time>2020-06-19T11:13:39Z</time>
      </trkpt>
      <trkpt lat="46.45224" lon="-1.65358">
        <ele>8</ele>
        <time>2020-06-19T11:14:55Z</time>
      </trkpt>
      <trkpt lat="46.45078" lon="-1.65318">
        <ele>6</ele>
        <time>2020-06-19T11:18:13Z</time>
      </trkpt>
      <trkpt lat="46.45098" lon="-1.65571">
        <ele>11</ele>
        <time>2020-06-19T11:22:07Z</time>
      </trkpt>
      <trkpt lat="46.45016" lon="-1.65614">
        <ele>12</ele>
        <time>2020-06-19T11:24:04Z</time>
      </trkpt>
      <trkpt lat="46.44933" lon="-1.65674">
        <ele>11</ele>
        <time>2020-06-19T11:26:07Z</time>
      </trkpt>
      <trkpt lat="46.44897" lon="-1.65807">
        <ele>8</ele>
        <time>2020-06-19T11:28:19Z</time>
      </trkpt>
      <trkpt lat="46.44906" lon="-1.6594">
        <ele>6</ele>
        <time>2020-06-19T11:30:22Z</time>
      </trkpt>
      <trkpt lat="46.44897" lon="-1.66026">
        <ele>5</ele>
        <time>2020-06-19T11:31:41Z</time>
      </trkpt>
      <trkpt lat="46.44951" lon="-1.66073">
        <ele>6</ele>
        <time>2020-06-19T11:33:06Z</time>
      </trkpt>
      <trkpt lat="46.44942" lon="-1.66164">
        <ele>2</ele>
        <time>2020-06-19T11:34:30Z</time>
      </trkpt>
      <trkpt lat="46.44989" lon="-1.66249">
        <ele>2</ele>
        <time>2020-06-19T11:36:10Z</time>
      </trkpt>
      <trkpt lat="46.44998" lon="-1.66365">
        <ele>7</ele>
        <time>2020-06-19T11:37:58Z</time>
      </trkpt>
      <trkpt lat="46.45078" lon="-1.66524">
        <ele>13</ele>
        <time>2020-06-19T11:40:59Z</time>
      </trkpt>
      <trkpt lat="46.45152" lon="-1.66743">
        <ele>14</ele>
        <time>2020-06-19T11:44:43Z</time>
      </trkpt>
      <trkpt lat="46.45208" lon="-1.66885">
        <ele>14</ele>
        <time>2020-06-19T11:47:13Z</time>
      </trkpt>
      <trkpt lat="46.45237" lon="-1.66992">
        <ele>16</ele>
        <time>2020-06-19T11:48:59Z</time>
      </trkpt>
      <trkpt lat="46.4522" lon="-1.67395">
        <ele>20</ele>
        <time>2020-06-19T11:55:10Z</time>
      </trkpt>
      <trkpt lat="46.45297" lon="-1.67661">
        <ele>22</ele>
        <time>2020-06-19T11:59:35Z</time>
      </trkpt>
      <trkpt lat="46.45512" lon="-1.6767">
        <ele>22</ele>
        <time>2020-06-19T12:04:23Z</time>
      </trkpt>
      <trkpt lat="46.45681" lon="-1.67606">
        <ele>23</ele>
        <time>2020-06-19T12:08:16Z</time>
      </trkpt>
      <trkpt lat="46.45832" lon="-1.67631">
        <ele>25</ele>
        <time>2020-06-19T12:11:38Z</time>
      </trkpt>
      <trkpt lat="46.45932" lon="-1.67661">
        <ele>25</ele>
        <time>2020-06-19T12:13:55Z</time>
      </trkpt>
      <trkpt lat="46.46101" lon="-1.67679">
        <ele>26</ele>
        <time>2020-06-19T12:17:41Z</time>
      </trkpt>
      <trkpt lat="46.45979" lon="-1.68202">
        <ele>24</ele>
        <time>2020-06-19T12:26:08Z</time>
      </trkpt>
      <trkpt lat="46.45977" lon="-1.68344">
        <ele>23</ele>
        <time>2020-06-19T12:28:19Z</time>
      </trkpt>
      <trkpt lat="46.45985" lon="-1.68533">
        <ele>21</ele>
        <time>2020-06-19T12:31:13Z</time>
      </trkpt>
      <trkpt lat="46.46015" lon="-1.68696">
        <ele>20</ele>
        <time>2020-06-19T12:33:48Z</time>
      </trkpt>
      <trkpt lat="46.46089" lon="-1.69125">
        <ele>25</ele>
        <time>2020-06-19T12:40:35Z</time>
      </trkpt>
      <trkpt lat="46.46118" lon="-1.69309">
        <ele>25</ele>
        <time>2020-06-19T12:43:28Z</time>
      </trkpt>
      <trkpt lat="46.46115" lon="-1.69387">
        <ele>25</ele>
        <time>2020-06-19T12:44:40Z</time>
      </trkpt>
      <trkpt lat="46.46121" lon="-1.69532">
        <ele>25</ele>
        <time>2020-06-19T12:46:53Z</time>
      </trkpt>
      <trkpt lat="46.46053" lon="-1.69777">
        <ele>22</ele>
        <time>2020-06-19T12:50:56Z</time>
      </trkpt>
      <trkpt lat="46.46047" lon="-1.69953">
        <ele>21</ele>
        <time>2020-06-19T12:53:38Z</time>
      </trkpt>
      <trkpt lat="46.46062" lon="-1.70116">
        <ele>23</ele>
        <time>2020-06-19T12:56:09Z</time>
      </trkpt>
      <trkpt lat="46.46124" lon="-1.70348">
        <ele>23</ele>
        <time>2020-06-19T12:59:58Z</time>
      </trkpt>
      <trkpt lat="46.46178" lon="-1.70447">
        <ele>22</ele>
        <time>2020-06-19T13:01:54Z</time>
      </trkpt>
      <trkpt lat="46.46272" lon="-1.70614">
        <ele>16</ele>
        <time>2020-06-19T13:05:13Z</time>
      </trkpt>
      <trkpt lat="46.46293" lon="-1.70738">
        <ele>12</ele>
        <time>2020-06-19T13:07:10Z</time>
      </trkpt>
      <trkpt lat="46.46275" lon="-1.70816">
        <ele>9</ele>
        <time>2020-06-19T13:08:26Z</time>
      </trkpt>
      <trkpt lat="46.46266" lon="-1.70867">
        <ele>7</ele>
        <time>2020-06-19T13:09:14Z</time>
      </trkpt>
      <trkpt lat="46.4633" lon="-1.71297">
        <ele>21</ele>
        <time>2020-06-19T13:15:58Z</time>
      </trkpt>
      <trkpt lat="46.46407" lon="-1.71499">
        <ele>21</ele>
        <time>2020-06-19T13:19:31Z</time>
      </trkpt>
      <trkpt lat="46.46444" lon="-1.71561">
        <ele>21</ele>
        <time>2020-06-19T13:20:46Z</time>
      </trkpt>
      <trkpt lat="46.46549" lon="-1.7172">
        <ele>24</ele>
        <time>2020-06-19T13:24:08Z</time>
      </trkpt>
      <trkpt lat="46.4658" lon="-1.7178">
        <ele>24</ele>
        <time>2020-06-19T13:25:17Z</time>
      </trkpt>
      <trkpt lat="46.46671" lon="-1.71892">
        <ele>24</ele>
        <time>2020-06-19T13:27:57Z</time>
      </trkpt>
      <trkpt lat="46.46769" lon="-1.71973">
        <ele>25</ele>
        <time>2020-06-19T13:30:27Z</time>
      </trkpt>
      <trkpt lat="46.46685" lon="-1.72139">
        <ele>25</ele>
        <time>2020-06-19T13:33:36Z</time>
      </trkpt>
      <trkpt lat="46.46751" lon="-1.72304">
        <ele>25</ele>
        <time>2020-06-19T13:36:32Z</time>
      </trkpt>
      <trkpt lat="46.46834" lon="-1.72518">
        <ele>25</ele>
        <time>2020-06-19T13:40:17Z</time>
      </trkpt>
      <trkpt lat="46.46868" lon="-1.72632">
        <ele>24</ele>
        <time>2020-06-19T13:42:12Z</time>
      </trkpt>
      <trkpt lat="46.46888" lon="-1.72696">
        <ele>23</ele>
        <time>2020-06-19T13:43:16Z</time>
      </trkpt>
      <trkpt lat="46.46779" lon="-1.72799">
        <ele>23</ele>
        <time>2020-06-19T13:46:10Z</time>
      </trkpt>
      <trkpt lat="46.46775" lon="-1.7284">
        <ele>22</ele>
        <time>2020-06-19T13:46:48Z</time>
      </trkpt>
      <trkpt lat="46.46758" lon="-1.72914">
        <ele>20</ele>
        <time>2020-06-19T13:48:00Z</time>
      </trkpt>
      <trkpt lat="46.46768" lon="-1.72947">
        <ele>20</ele>
        <time>2020-06-19T13:48:33Z</time>
      </trkpt>
      <trkpt lat="46.46774" lon="-1.72994">
        <ele>21</ele>
        <time>2020-06-19T13:49:17Z</time>
      </trkpt>
      <trkpt lat="46.46776" lon="-1.73046">
        <ele>20</ele>
        <time>2020-06-19T13:50:04Z</time>
      </trkpt>
      <trkpt lat="46.46795" lon="-1.73071">
        <ele>20</ele>
        <time>2020-06-19T13:50:39Z</time>
      </trkpt>
      <trkpt lat="46.46801" lon="-1.73126">
        <ele>19</ele>
        <time>2020-06-19T13:51:30Z</time>
      </trkpt>
      <trkpt lat="46.46836" lon="-1.73125">
        <ele>20</ele>
        <time>2020-06-19T13:52:17Z</time>
      </trkpt>
      <trkpt lat="46.46869" lon="-1.73132">
        <ele>19</ele>
        <time>2020-06-19T13:53:01Z</time>
      </trkpt>
      <trkpt lat="46.46954" lon="-1.73214">
        <ele>16</ele>
        <time>2020-06-19T13:55:17Z</time>
      </trkpt>
      <trkpt lat="46.46996" lon="-1.73244">
        <ele>16</ele>
        <time>2020-06-19T13:56:20Z</time>
      </trkpt>
      <trkpt lat="46.47047" lon="-1.73313">
        <ele>16</ele>
        <time>2020-06-19T13:57:53Z</time>
      </trkpt>
      <trkpt lat="46.47087" lon="-1.73379">
        <ele>16</ele>
        <time>2020-06-19T13:59:14Z</time>
      </trkpt>
      <trkpt lat="46.47132" lon="-1.73481">
        <ele>16</ele>
        <time>2020-06-19T14:01:05Z</time>
      </trkpt>
      <trkpt lat="46.47146" lon="-1.73533">
        <ele>16</ele>
        <time>2020-06-19T14:01:56Z</time>
      </trkpt>
      <trkpt lat="46.47213" lon="-1.73657">
        <ele>16</ele>
        <time>2020-06-19T14:04:21Z</time>
      </trkpt>
      <trkpt lat="46.47234" lon="-1.73765">
        <ele>15</ele>
        <time>2020-06-19T14:06:04Z</time>
      </trkpt>
      <trkpt lat="46.47282" lon="-1.73856">
        <ele>14</ele>
        <time>2020-06-19T14:07:50Z</time>
      </trkpt>
      <trkpt lat="46.47339" lon="-1.74046">
        <ele>15</ele>
        <time>2020-06-19T14:11:00Z</time>
      </trkpt>
      <trkpt lat="46.47364" lon="-1.74141">
        <ele>17</ele>
        <time>2020-06-19T14:12:33Z</time>
      </trkpt>
      <trkpt lat="46.47023" lon="-1.74225">
        <ele>8</ele>
        <time>2020-06-19T14:20:15Z</time>
      </trkpt>
      <trkpt lat="46.47116" lon="-1.74403">
        <ele>7</ele>
        <time>2020-06-19T14:23:40Z</time>
      </trkpt>
      <trkpt lat="46.47203" lon="-1.74564">
        <ele>8</ele>
        <time>2020-06-19T14:26:48Z</time>
      </trkpt>
    </trkseg>
  </trk>
</gpx>